Montreal / Pierre Elliott Trudeau International Airport

CYUL · Quebec, 加拿大

罗盘
风向 的 风向 110° 蒙特利尔皮埃尔·埃利奥特·特鲁多国际机场 6R/24L
风: 10 kt, 3 beaufort

6 kt

8 kt
改变
0 6.000 12.000 18.000 24.000 30.000
FEW 3.000 ft
SCT 19.000 ft
BKN 24.000 ft
SPECI CYUL 300600Z 11010KT 15SM FEW030 SCT190 BKN240 01/M04 A3014 RMK SC2AC1CI4 SLP209

METAR 蒙特利尔皮埃尔·埃利奥特·特鲁多国际机场 - CYUL/YUL

蒙特利尔皮埃尔·埃利奥特·特鲁多国际机场是,加拿大中的大型机场。 该机场有3条跑道: 6R/24L, 6L/24R 和 10/28. 该领域的国际民航组织标志是CYUL 它的国际航空运输协会代码是YUL.

这份报告是针对2022年11月30日 01:00, 当地时间在蒙特利尔皮埃尔·埃利奥特·特鲁多国际机场进行的。

机场观察

风向为110°,速度为10 kt。

可见度为15 mi。

有几云在3.000 ft的高度, 疏云,零星散落的云朵在19.000 ft的高度 和 碎云在24.000 ft的高度。 破损或更高的上限为24.000 ft。

温度为1 °C,阵风为-6 °C。 露点为-4 °C,相对湿度为70%。 海平面上的气压为30,14 inHg (QNH)。

白天

今天,太阳从07:13升起,在16:13降落。 这适用于蒙特利尔皮埃尔·埃利奥特·特鲁多国际机场,世界夏令时可能有所不同。 当地时间与世界标准时间之间的时差为-5 小时。 当前,没有夏令时有效。

公司介绍

我们没有关于这个机场的公司信息。

体会

到Vliegles.nl去找飞行课程,跳伞和其他飞行体验。 浏览页面,了解蒙特利尔皮埃尔·埃利奥特·特鲁多国际机场附近所有可用的活动。 你也可以使用搜索功能来寻找你所在地附近的特定飞行课程、跳伞或其他飞行体验。

跑道

Id 标题 侧风 逆风 侧风 %
6R/24L 057°-237° 8 kt 6 kt 80 %
6L/24R 057°-237° 8 kt 6 kt 80 %
10/28 102°-282° 1 kt 10 kt 14 %

逆风成分最大的方向会被突出显示,并用于横风计算。 这并不一定意味着这个方向在使用。

乌云

3.000 ft FEW 几云
19.000 ft SCT 疏云,零星散落的云朵
24.000 ft BKN 碎云

温度 & 天气

温度 1 °C
露点 -4 °C
相对湿度 70%
风寒 -6 °C
Kp-index 1 (0-9)

评论

SLP209海平面压力为30,15 inHg (30,15 inHg)
SC2AC1CI4

白天

日出
07:13 (5:48)
中午
11:43
日落
16:13

小工具

你想在你的网站上有一个关于蒙特利尔皮埃尔·埃利奥特·特鲁多国际机场的当前航空天气(METAR)的小部件吗?

显示HTML代码

我们和第三方通过cookies跟踪您在我们网站上的互联网行为。如果你继续,我们认为你同意我们的饼干政策